sensor_id;sensor_type;location;lat;lon;timestamp;pressure;altitude;pressure_sealevel;temperature;humidity
29941;BME280;16801;53.562;10.038;2022-08-19T00:03:05;101165.88;;;22.06;69.97
29941;BME280;16801;53.562;10.038;2022-08-19T00:06:28;101157.41;;;22.08;69.95
29941;BME280;16801;53.562;10.038;2022-08-19T00:09:49;101157.41;;;22.08;70.06
29941;BME280;16801;53.562;10.038;2022-08-19T00:13:10;101148.66;;;21.91;70.59
29941;BME280;16801;53.562;10.038;2022-08-19T00:16:32;101141.69;;;21.89;70.33
29941;BME280;16801;53.562;10.038;2022-08-19T00:19:55;101154.56;;;21.88;71.05
29941;BME280;16801;53.562;10.038;2022-08-19T00:23:16;101154.53;;;21.82;71.28
29941;BME280;16801;53.562;10.038;2022-08-19T00:26:38;101155.91;;;21.71;71.97
29941;BME280;16801;53.562;10.038;2022-08-19T00:30:00;101163.72;;;21.74;71.91
29941;BME280;16801;53.562;10.038;2022-08-19T00:33:23;101161.72;;;21.83;71.63
29941;BME280;16801;53.562;10.038;2022-08-19T00:36:46;101154.47;;;21.75;72.33
29941;BME280;16801;53.562;10.038;2022-08-19T00:40:07;101151.16;;;21.86;71.56
29941;BME280;16801;53.562;10.038;2022-08-19T00:43:28;101147.22;;;21.68;72.44
29941;BME280;16801;53.562;10.038;2022-08-19T00:46:51;101145.50;;;21.60;72.77
29941;BME280;16801;53.562;10.038;2022-08-19T00:50:15;101143.72;;;21.46;73.53
29941;BME280;16801;53.562;10.038;2022-08-19T00:53:38;101137.06;;;21.62;72.43
29941;BME280;16801;53.562;10.038;2022-08-19T00:57:00;101135.44;;;21.74;72.29
29941;BME280;16801;53.562;10.038;2022-08-19T01:00:24;101134.16;;;21.70;72.50
29941;BME280;16801;53.562;10.038;2022-08-19T01:03:45;101135.63;;;21.72;72.00
29941;BME280;16801;53.562;10.038;2022-08-19T01:07:07;101141.38;;;21.77;72.21
29941;BME280;16801;53.562;10.038;2022-08-19T01:10:33;101140.53;;;21.77;72.24
29941;BME280;16801;53.562;10.038;2022-08-19T01:13:57;101141.34;;;21.71;72.46
29941;BME280;16801;53.562;10.038;2022-08-19T01:17:20;101135.56;;;21.59;72.61
29941;BME280;16801;53.562;10.038;2022-08-19T01:20:42;101134.72;;;21.59;72.84
29941;BME280;16801;53.562;10.038;2022-08-19T01:24:05;101128.38;;;21.58;72.76
29941;BME280;16801;53.562;10.038;2022-08-19T01:27:26;101124.13;;;21.56;73.07
29941;BME280;16801;53.562;10.038;2022-08-19T01:30:48;101135.22;;;21.41;73.43
29941;BME280;16801;53.562;10.038;2022-08-19T01:34:09;101133.19;;;21.49;73.12
29941;BME280;16801;53.562;10.038;2022-08-19T01:37:41;101127.47;;;21.51;73.30
29941;BME280;16801;53.562;10.038;2022-08-19T01:41:04;101117.84;;;21.62;72.87
29941;BME280;16801;53.562;10.038;2022-08-19T01:44:26;101114.66;;;21.58;72.69
29941;BME280;16801;53.562;10.038;2022-08-19T01:47:47;101111.47;;;21.55;73.15
29941;BME280;16801;53.562;10.038;2022-08-19T01:51:09;101106.06;;;21.68;72.81
29941;BME280;16801;53.562;10.038;2022-08-19T01:54:31;101096.75;;;21.62;72.87
29941;BME280;16801;53.562;10.038;2022-08-19T01:57:55;101106.69;;;21.63;72.96
29941;BME280;16801;53.562;10.038;2022-08-19T02:01:18;101105.38;;;21.59;73.19
29941;BME280;16801;53.562;10.038;2022-08-19T02:04:39;101105.63;;;21.64;73.32
29941;BME280;16801;53.562;10.038;2022-08-19T02:08:00;101105.22;;;21.67;73.10
29941;BME280;16801;53.562;10.038;2022-08-19T02:11:23;101103.25;;;21.61;73.22
29941;BME280;16801;53.562;10.038;2022-08-19T02:14:47;101097.78;;;21.61;73.16
29941;BME280;16801;53.562;10.038;2022-08-19T02:18:08;101088.50;;;21.62;73.17
29941;BME280;16801;53.562;10.038;2022-08-19T02:21:30;101068.19;;;21.50;73.89
29941;BME280;16801;53.562;10.038;2022-08-19T02:24:51;101067.72;;;21.40;74.49
29941;BME280;16801;53.562;10.038;2022-08-19T02:28:12;101063.63;;;21.29;74.78
29941;BME280;16801;53.562;10.038;2022-08-19T02:31:35;101079.06;;;21.37;74.18
29941;BME280;16801;53.562;10.038;2022-08-19T02:34:56;101083.63;;;21.23;75.07
29941;BME280;16801;53.562;10.038;2022-08-19T02:38:17;101090.47;;;21.34;74.87
29941;BME280;16801;53.562;10.038;2022-08-19T02:41:48;101090.09;;;21.43;74.20
29941;BME280;16801;53.562;10.038;2022-08-19T02:45:10;101094.19;;;21.26;75.08
29941;BME280;16801;53.562;10.038;2022-08-19T02:48:33;101089.41;;;21.35;74.78
29941;BME280;16801;53.562;10.038;2022-08-19T02:51:54;101085.25;;;21.45;74.41
29941;BME280;16801;53.562;10.038;2022-08-19T02:55:15;101084.28;;;21.32;74.87
29941;BME280;16801;53.562;10.038;2022-08-19T02:58:36;101094.72;;;21.15;75.45
29941;BME280;16801;53.562;10.038;2022-08-19T03:01:57;101084.66;;;21.22;75.39
29941;BME280;16801;53.562;10.038;2022-08-19T03:05:20;101095.72;;;21.08;76.08
29941;BME280;16801;53.562;10.038;2022-08-19T03:08:43;101091.44;;;21.26;75.57
29941;BME280;16801;53.562;10.038;2022-08-19T03:12:05;101101.44;;;21.34;75.45
29941;BME280;16801;53.562;10.038;2022-08-19T03:15:26;101094.09;;;21.13;75.78
29941;BME280;16801;53.562;10.038;2022-08-19T03:18:48;101093.53;;;21.24;75.61
29941;BME280;16801;53.562;10.038;2022-08-19T03:22:10;101093.97;;;21.28;75.71
29941;BME280;16801;53.562;10.038;2022-08-19T03:25:36;101090.16;;;21.22;75.66
29941;BME280;16801;53.562;10.038;2022-08-19T03:28:57;101096.06;;;21.19;76.11
29941;BME280;16801;53.562;10.038;2022-08-19T03:32:18;101090.66;;;21.05;76.49
29941;BME280;16801;53.562;10.038;2022-08-19T03:35:39;101092.78;;;21.09;76.23
29941;BME280;16801;53.562;10.038;2022-08-19T03:39:02;101086.91;;;21.12;76.35
29941;BME280;16801;53.562;10.038;2022-08-19T03:42:23;101082.63;;;21.03;76.67
29941;BME280;16801;53.562;10.038;2022-08-19T03:45:46;101096.00;;;20.92;76.95
29941;BME280;16801;53.562;10.038;2022-08-19T03:49:08;101104.16;;;20.64;78.24
29941;BME280;16801;53.562;10.038;2022-08-19T03:52:29;101108.47;;;20.73;78.05
29941;BME280;16801;53.562;10.038;2022-08-19T03:55:52;101113.97;;;20.73;77.94
29941;BME280;16801;53.562;10.038;2022-08-19T03:59:15;101119.16;;;20.68;78.13
29941;BME280;16801;53.562;10.038;2022-08-19T04:02:37;101125.81;;;20.80;77.75
29941;BME280;16801;53.562;10.038;2022-08-19T04:05:58;101133.47;;;20.85;77.72
29941;BME280;16801;53.562;10.038;2022-08-19T04:09:19;101132.72;;;20.55;78.36
29941;BME280;16801;53.562;10.038;2022-08-19T04:12:42;101127.19;;;20.69;78.22
29941;BME280;16801;53.562;10.038;2022-08-19T04:16:03;101126.75;;;20.66;78.33
29941;BME280;16801;53.562;10.038;2022-08-19T04:19:25;101131.19;;;20.67;78.48
29941;BME280;16801;53.562;10.038;2022-08-19T04:22:46;101149.31;;;20.89;77.46
29941;BME280;16801;53.562;10.038;2022-08-19T04:26:12;101151.75;;;20.78;78.09
29941;BME280;16801;53.562;10.038;2022-08-19T04:29:34;101148.22;;;20.84;77.61
29941;BME280;16801;53.562;10.038;2022-08-19T04:32:59;101161.00;;;20.98;77.32
29941;BME280;16801;53.562;10.038;2022-08-19T04:36:22;101157.28;;;20.84;77.85
29941;BME280;16801;53.562;10.038;2022-08-19T04:39:43;101157.41;;;20.97;77.23
29941;BME280;16801;53.562;10.038;2022-08-19T04:43:21;101157.41;;;21.18;76.33
29941;BME280;16801;53.562;10.038;2022-08-19T04:46:43;101153.94;;;21.31;75.46
29941;BME280;16801;53.562;10.038;2022-08-19T04:50:05;101155.53;;;20.98;76.94
29941;BME280;16801;53.562;10.038;2022-08-19T04:53:28;101156.75;;;20.74;77.63
29941;BME280;16801;53.562;10.038;2022-08-19T04:56:49;101163.38;;;20.80;78.00
29941;BME280;16801;53.562;10.038;2022-08-19T05:00:12;101163.41;;;20.86;77.47
29941;BME280;16801;53.562;10.038;2022-08-19T05:03:34;101163.38;;;20.80;78.15
29941;BME280;16801;53.562;10.038;2022-08-19T05:06:55;101164.84;;;20.82;78.32
29941;BME280;16801;53.562;10.038;2022-08-19T05:10:16;101163.09;;;20.75;78.67
29941;BME280;16801;53.562;10.038;2022-08-19T05:13:37;101162.22;;;20.95;78.02
29941;BME280;16801;53.562;10.038;2022-08-19T05:17:00;101178.47;;;20.97;77.78
29941;BME280;16801;53.562;10.038;2022-08-19T05:20:23;101172.41;;;20.80;78.14
29941;BME280;16801;53.562;10.038;2022-08-19T05:24:01;101175.53;;;20.56;79.44
29941;BME280;16801;53.562;10.038;2022-08-19T05:27:22;101180.97;;;20.70;79.09
29941;BME280;16801;53.562;10.038;2022-08-19T05:30:43;101186.66;;;20.90;78.15
29941;BME280;16801;53.562;10.038;2022-08-19T05:34:05;101182.22;;;20.89;78.38
29941;BME280;16801;53.562;10.038;2022-08-19T05:37:28;101188.03;;;20.80;78.67
29941;BME280;16801;53.562;10.038;2022-08-19T05:40:49;101179.34;;;20.97;77.80
29941;BME280;16801;53.562;10.038;2022-08-19T05:44:10;101179.91;;;20.93;77.68
29941;BME280;16801;53.562;10.038;2022-08-19T05:47:31;101177.44;;;20.98;77.53
29941;BME280;16801;53.562;10.038;2022-08-19T05:50:53;101177.97;;;20.87;77.59
29941;BME280;16801;53.562;10.038;2022-08-19T05:54:15;101175.03;;;20.88;77.68
29941;BME280;16801;53.562;10.038;2022-08-19T05:57:36;101177.34;;;21.06;77.08
29941;BME280;16801;53.562;10.038;2022-08-19T06:00:57;101180.97;;;20.92;77.41
29941;BME280;16801;53.562;10.038;2022-08-19T06:04:24;101174.97;;;20.82;77.78
29941;BME280;16801;53.562;10.038;2022-08-19T06:07:45;101172.25;;;20.82;77.64
29941;BME280;16801;53.562;10.038;2022-08-19T06:11:20;101176.94;;;20.88;77.03
29941;BME280;16801;53.562;10.038;2022-08-19T06:14:41;101179.34;;;20.97;77.13
29941;BME280;16801;53.562;10.038;2022-08-19T06:18:03;101179.22;;;20.63;78.22
29941;BME280;16801;53.562;10.038;2022-08-19T06:21:25;101184.09;;;20.89;77.43
29941;BME280;16801;53.562;10.038;2022-08-19T06:24:47;101187.50;;;20.91;77.57
29941;BME280;16801;53.562;10.038;2022-08-19T06:28:13;101185.88;;;20.96;77.33
29941;BME280;16801;53.562;10.038;2022-08-19T06:31:35;101181.31;;;21.03;77.19
29941;BME280;16801;53.562;10.038;2022-08-19T06:34:58;101181.91;;;21.47;75.47
29941;BME280;16801;53.562;10.038;2022-08-19T06:38:19;101180.97;;;21.34;75.41
29941;BME280;16801;53.562;10.038;2022-08-19T06:41:45;101168.75;;;21.36;75.27
29941;BME280;16801;53.562;10.038;2022-08-19T06:45:11;101161.84;;;21.47;74.81
29941;BME280;16801;53.562;10.038;2022-08-19T06:48:33;101164.22;;;21.50;74.68
29941;BME280;16801;53.562;10.038;2022-08-19T06:51:54;101167.88;;;21.64;74.31
29941;BME280;16801;53.562;10.038;2022-08-19T06:55:16;101167.44;;;21.60;73.91
29941;BME280;16801;53.562;10.038;2022-08-19T06:58:37;101174.63;;;21.61;73.54
29941;BME280;16801;53.562;10.038;2022-08-19T07:02:02;101168.00;;;21.49;73.82
29941;BME280;16801;53.562;10.038;2022-08-19T07:05:24;101171.44;;;21.30;74.95
29941;BME280;16801;53.562;10.038;2022-08-19T07:08:46;101179.47;;;21.31;75.26
29941;BME280;16801;53.562;10.038;2022-08-19T07:12:09;101169.91;;;21.48;75.39
29941;BME280;16801;53.562;10.038;2022-08-19T07:15:30;101173.03;;;21.73;74.66
29941;BME280;16801;53.562;10.038;2022-08-19T07:18:53;101170.81;;;21.83;73.53
29941;BME280;16801;53.562;10.038;2022-08-19T07:22:14;101174.72;;;21.46;74.82
29941;BME280;16801;53.562;10.038;2022-08-19T07:25:36;101172.03;;;21.53;74.26
29941;BME280;16801;53.562;10.038;2022-08-19T07:28:58;101188.34;;;21.89;73.59
29941;BME280;16801;53.562;10.038;2022-08-19T07:32:21;101180.25;;;22.08;72.50
29941;BME280;16801;53.562;10.038;2022-08-19T07:35:43;101193.81;;;21.82;73.48
29941;BME280;16801;53.562;10.038;2022-08-19T07:39:09;101205.00;;;21.60;74.29
29941;BME280;16801;53.562;10.038;2022-08-19T07:42:30;101210.97;;;21.63;74.18
29941;BME280;16801;53.562;10.038;2022-08-19T07:45:52;101204.47;;;21.22;75.24
29941;BME280;16801;53.562;10.038;2022-08-19T07:49:17;101205.97;;;21.45;74.82
29941;BME280;16801;53.562;10.038;2022-08-19T07:52:40;101216.09;;;21.45;74.57
29941;BME280;16801;53.562;10.038;2022-08-19T07:56:04;101218.03;;;21.51;74.71
29941;BME280;16801;53.562;10.038;2022-08-19T07:59:26;101220.59;;;21.53;74.02
29941;BME280;16801;53.562;10.038;2022-08-19T08:02:48;101229.56;;;21.68;74.31
29941;BME280;16801;53.562;10.038;2022-08-19T08:06:08;101238.66;;;21.68;73.62
29941;BME280;16801;53.562;10.038;2022-08-19T08:09:49;101238.41;;;21.63;73.45
29941;BME280;16801;53.562;10.038;2022-08-19T08:13:10;101242.56;;;21.53;73.63
29941;BME280;16801;53.562;10.038;2022-08-19T08:16:33;101236.66;;;21.34;74.63
29941;BME280;16801;53.562;10.038;2022-08-19T08:19:54;101240.63;;;21.53;73.82
29941;BME280;16801;53.562;10.038;2022-08-19T08:23:16;101242.56;;;21.31;74.37
29941;BME280;16801;53.562;10.038;2022-08-19T08:26:46;101244.97;;;21.41;74.41
29941;BME280;16801;53.562;10.038;2022-08-19T08:30:07;101249.81;;;21.39;74.52
29941;BME280;16801;53.562;10.038;2022-08-19T08:33:29;101254.56;;;21.30;75.22
29941;BME280;16801;53.562;10.038;2022-08-19T08:36:50;101253.56;;;21.59;73.60
29941;BME280;16801;53.562;10.038;2022-08-19T08:40:18;101260.97;;;21.37;74.24
29941;BME280;16801;53.562;10.038;2022-08-19T08:43:45;101253.13;;;21.56;74.24
29941;BME280;16801;53.562;10.038;2022-08-19T08:47:13;101255.06;;;21.83;72.89
29941;BME280;16801;53.562;10.038;2022-08-19T08:50:40;101257.41;;;21.65;73.26
29941;BME280;16801;53.562;10.038;2022-08-19T08:54:05;101251.97;;;21.92;72.58
29941;BME280;16801;53.562;10.038;2022-08-19T08:57:32;101254.03;;;21.84;72.71
29941;BME280;16801;53.562;10.038;2022-08-19T09:00:57;101255.81;;;21.98;72.43
29941;BME280;16801;53.562;10.038;2022-08-19T09:04:18;101257.47;;;21.71;73.05
29941;BME280;16801;53.562;10.038;2022-08-19T09:07:46;101255.31;;;21.88;72.63
29941;BME280;16801;53.562;10.038;2022-08-19T09:11:15;101257.00;;;21.68;73.25
29941;BME280;16801;53.562;10.038;2022-08-19T09:14:45;101259.44;;;21.77;73.19
29941;BME280;16801;53.562;10.038;2022-08-19T09:18:10;101258.06;;;21.88;72.96
29941;BME280;16801;53.562;10.038;2022-08-19T09:21:32;101266.94;;;21.90;72.90
29941;BME280;16801;53.562;10.038;2022-08-19T09:24:54;101268.00;;;21.46;74.46
29941;BME280;16801;53.562;10.038;2022-08-19T09:28:16;101265.00;;;21.63;74.08
29941;BME280;16801;53.562;10.038;2022-08-19T09:31:37;101269.34;;;21.78;73.54
29941;BME280;16801;53.562;10.038;2022-08-19T09:35:00;101262.31;;;21.97;73.01
29941;BME280;16801;53.562;10.038;2022-08-19T09:38:21;101252.00;;;21.99;72.69
29941;BME280;16801;53.562;10.038;2022-08-19T09:41:42;101266.75;;;22.25;71.95
29941;BME280;16801;53.562;10.038;2022-08-19T09:45:04;101251.91;;;22.20;72.23
29941;BME280;16801;53.562;10.038;2022-08-19T09:48:25;101259.34;;;21.92;73.08
29941;BME280;16801;53.562;10.038;2022-08-19T09:51:50;101260.34;;;21.84;73.27
29941;BME280;16801;53.562;10.038;2022-08-19T09:55:11;101248.84;;;22.02;72.69
29941;BME280;16801;53.562;10.038;2022-08-19T09:58:32;101263.47;;;21.81;72.94
29941;BME280;16801;53.562;10.038;2022-08-19T10:01:54;101264.72;;;21.79;73.78
29941;BME280;16801;53.562;10.038;2022-08-19T10:05:15;101258.25;;;22.20;72.28
29941;BME280;16801;53.562;10.038;2022-08-19T10:08:55;101255.84;;;22.04;72.84
29941;BME280;16801;53.562;10.038;2022-08-19T10:12:16;101261.47;;;22.31;72.05
29941;BME280;16801;53.562;10.038;2022-08-19T10:15:37;101263.50;;;22.15;72.52
29941;BME280;16801;53.562;10.038;2022-08-19T10:18:59;101263.91;;;22.87;70.42
29941;BME280;16801;53.562;10.038;2022-08-19T10:22:20;101268.59;;;23.07;69.13
29941;BME280;16801;53.562;10.038;2022-08-19T10:25:42;101270.63;;;22.78;70.55
29941;BME280;16801;53.562;10.038;2022-08-19T10:29:04;101269.75;;;22.71;70.08
29941;BME280;16801;53.562;10.038;2022-08-19T10:32:25;101266.75;;;22.60;71.38
29941;BME280;16801;53.562;10.038;2022-08-19T10:35:47;101268.59;;;22.53;71.47
29941;BME280;16801;53.562;10.038;2022-08-19T10:39:09;101258.44;;;22.53;71.38
29941;BME280;16801;53.562;10.038;2022-08-19T10:42:33;101269.56;;;22.39;72.03
29941;BME280;16801;53.562;10.038;2022-08-19T10:45:54;101265.22;;;22.51;71.45
29941;BME280;16801;53.562;10.038;2022-08-19T10:49:18;101258.28;;;22.61;71.40
29941;BME280;16801;53.562;10.038;2022-08-19T10:52:41;101252.66;;;22.82;70.62
29941;BME280;16801;53.562;10.038;2022-08-19T10:56:02;101259.56;;;22.59;71.79
29941;BME280;16801;53.562;10.038;2022-08-19T10:59:42;101263.88;;;22.47;72.24
29941;BME280;16801;53.562;10.038;2022-08-19T11:03:02;101262.56;;;22.30;72.38
29941;BME280;16801;53.562;10.038;2022-08-19T11:06:24;101256.81;;;22.59;71.95
29941;BME280;16801;53.562;10.038;2022-08-19T11:09:45;101257.25;;;22.62;71.52
29941;BME280;16801;53.562;10.038;2022-08-19T11:13:06;101255.81;;;22.39;72.04
29941;BME280;16801;53.562;10.038;2022-08-19T11:16:29;101265.91;;;22.66;71.63
29941;BME280;16801;53.562;10.038;2022-08-19T11:19:51;101269.84;;;22.50;72.03
29941;BME280;16801;53.562;10.038;2022-08-19T11:23:12;101257.75;;;22.85;70.41
29941;BME280;16801;53.562;10.038;2022-08-19T11:26:34;101260.47;;;22.79;70.87
29941;BME280;16801;53.562;10.038;2022-08-19T11:29:56;101261.97;;;22.81;70.62
29941;BME280;16801;53.562;10.038;2022-08-19T11:33:18;101257.19;;;23.23;69.26
29941;BME280;16801;53.562;10.038;2022-08-19T11:36:42;101244.97;;;23.58;67.85
29941;BME280;16801;53.562;10.038;2022-08-19T11:40:05;101241.13;;;23.13;69.76
29941;BME280;16801;53.562;10.038;2022-08-19T11:43:27;101240.31;;;23.32;69.17
29941;BME280;16801;53.562;10.038;2022-08-19T11:46:48;101242.44;;;23.56;68.00
29941;BME280;16801;53.562;10.038;2022-08-19T11:50:10;101234.16;;;23.96;66.17
29941;BME280;16801;53.562;10.038;2022-08-19T11:53:32;101235.88;;;23.77;66.68
29941;BME280;16801;53.562;10.038;2022-08-19T11:56:54;101240.09;;;23.66;67.25
29941;BME280;16801;53.562;10.038;2022-08-19T12:00:15;101241.13;;;23.20;69.15
29941;BME280;16801;53.562;10.038;2022-08-19T12:03:37;101242.88;;;23.34;68.46
29941;BME280;16801;53.562;10.038;2022-08-19T12:06:59;101255.28;;;23.10;69.28
29941;BME280;16801;53.562;10.038;2022-08-19T12:10:23;101246.13;;;22.90;69.79
29941;BME280;16801;53.562;10.038;2022-08-19T12:13:44;101248.06;;;23.02;69.34
29941;BME280;16801;53.562;10.038;2022-08-19T12:17:05;101240.28;;;23.26;68.76
29941;BME280;16801;53.562;10.038;2022-08-19T12:20:28;101245.97;;;23.11;68.79
29941;BME280;16801;53.562;10.038;2022-08-19T12:23:50;101241.81;;;23.67;67.45
29941;BME280;16801;53.562;10.038;2022-08-19T12:27:12;101243.66;;;24.83;64.24
29941;BME280;16801;53.562;10.038;2022-08-19T12:30:33;101237.06;;;26.21;59.20
29941;BME280;16801;53.562;10.038;2022-08-19T12:33:58;101232.81;;;25.75;59.92
29941;BME280;16801;53.562;10.038;2022-08-19T12:37:20;101235.84;;;26.53;58.69
29941;BME280;16801;53.562;10.038;2022-08-19T12:40:45;101215.28;;;27.38;55.71
29941;BME280;16801;53.562;10.038;2022-08-19T12:44:06;101222.94;;;28.75;51.66
29941;BME280;16801;53.562;10.038;2022-08-19T12:47:27;101224.69;;;27.48;55.28
29941;BME280;16801;53.562;10.038;2022-08-19T12:50:49;101222.56;;;27.21;55.34
29941;BME280;16801;53.562;10.038;2022-08-19T12:54:10;101223.47;;;27.03;55.96
29941;BME280;16801;53.562;10.038;2022-08-19T12:57:33;101226.09;;;26.32;58.29
29941;BME280;16801;53.562;10.038;2022-08-19T13:00:55;101216.81;;;25.84;59.23
29941;BME280;16801;53.562;10.038;2022-08-19T13:04:17;101223.94;;;28.69;52.70
29941;BME280;16801;53.562;10.038;2022-08-19T13:07:40;101220.66;;;29.00;50.04
29941;BME280;16801;53.562;10.038;2022-08-19T13:11:07;101221.50;;;27.33;54.63
29941;BME280;16801;53.562;10.038;2022-08-19T13:14:33;101214.56;;;26.53;56.99
29941;BME280;16801;53.562;10.038;2022-08-19T13:17:54;101223.94;;;25.91;58.57
29941;BME280;16801;53.562;10.038;2022-08-19T13:21:15;101215.03;;;25.40;60.50
29941;BME280;16801;53.562;10.038;2022-08-19T13:24:39;101218.50;;;25.60;60.94
29941;BME280;16801;53.562;10.038;2022-08-19T13:28:00;101211.94;;;25.30;60.92
29941;BME280;16801;53.562;10.038;2022-08-19T13:31:24;101212.94;;;25.67;59.83
29941;BME280;16801;53.562;10.038;2022-08-19T13:35:04;101216.78;;;25.66;59.61
29941;BME280;16801;53.562;10.038;2022-08-19T13:38:25;101198.16;;;26.22;58.14
29941;BME280;16801;53.562;10.038;2022-08-19T13:41:47;101203.19;;;26.25;58.82
29941;BME280;16801;53.562;10.038;2022-08-19T13:45:09;101196.78;;;26.61;56.80
29941;BME280;16801;53.562;10.038;2022-08-19T13:48:32;101200.13;;;26.15;58.11
29941;BME280;16801;53.562;10.038;2022-08-19T13:51:53;101196.41;;;26.03;58.59
29941;BME280;16801;53.562;10.038;2022-08-19T13:55:15;101196.91;;;25.75;59.76
29941;BME280;16801;53.562;10.038;2022-08-19T13:58:36;101202.47;;;25.19;61.05
29941;BME280;16801;53.562;10.038;2022-08-19T14:01:57;101203.69;;;24.99;61.64
29941;BME280;16801;53.562;10.038;2022-08-19T14:05:21;101205.53;;;24.74;62.49
29941;BME280;16801;53.562;10.038;2022-08-19T14:08:42;101209.97;;;24.68;62.53
29941;BME280;16801;53.562;10.038;2022-08-19T14:12:04;101203.44;;;24.56;63.38
29941;BME280;16801;53.562;10.038;2022-08-19T14:15:25;101197.97;;;24.49;63.34
29941;BME280;16801;53.562;10.038;2022-08-19T14:18:47;101195.38;;;24.10;64.22
29941;BME280;16801;53.562;10.038;2022-08-19T14:22:09;101190.47;;;24.19;64.30
29941;BME280;16801;53.562;10.038;2022-08-19T14:25:30;101199.91;;;24.49;63.80
29941;BME280;16801;53.562;10.038;2022-08-19T14:28:52;101199.22;;;24.53;63.36
29941;BME280;16801;53.562;10.038;2022-08-19T14:32:17;101196.88;;;24.57;63.36
29941;BME280;16801;53.562;10.038;2022-08-19T14:35:38;101199.63;;;24.64;62.93
29941;BME280;16801;53.562;10.038;2022-08-19T14:39:05;101205.91;;;24.77;62.34
29941;BME280;16801;53.562;10.038;2022-08-19T14:42:26;101201.81;;;24.93;61.65
29941;BME280;16801;53.562;10.038;2022-08-19T14:45:48;101196.06;;;24.94;61.62
29941;BME280;16801;53.562;10.038;2022-08-19T14:49:08;101201.56;;;25.25;60.95
29941;BME280;16801;53.562;10.038;2022-08-19T14:52:29;101200.00;;;25.36;61.02
29941;BME280;16801;53.562;10.038;2022-08-19T14:55:52;101200.38;;;25.39;60.12
29941;BME280;16801;53.562;10.038;2022-08-19T14:59:13;101205.34;;;25.31;60.08
29941;BME280;16801;53.562;10.038;2022-08-19T15:02:34;101208.03;;;25.37;59.77
29941;BME280;16801;53.562;10.038;2022-08-19T15:05:56;101206.56;;;25.35;60.61
29941;BME280;16801;53.562;10.038;2022-08-19T15:09:17;101220.56;;;25.47;59.46
29941;BME280;16801;53.562;10.038;2022-08-19T15:12:40;101215.94;;;25.34;60.29
29941;BME280;16801;53.562;10.038;2022-08-19T15:16:02;101225.78;;;25.23;60.54
29941;BME280;16801;53.562;10.038;2022-08-19T15:19:23;101220.19;;;25.05;60.93
29941;BME280;16801;53.562;10.038;2022-08-19T15:22:45;101224.31;;;24.90;61.55
29941;BME280;16801;53.562;10.038;2022-08-19T15:26:06;101229.25;;;24.81;61.66
29941;BME280;16801;53.562;10.038;2022-08-19T15:29:29;101225.22;;;24.77;61.87
29941;BME280;16801;53.562;10.038;2022-08-19T15:32:50;101227.31;;;24.88;61.42
29941;BME280;16801;53.562;10.038;2022-08-19T15:36:14;101233.34;;;25.03;60.99
29941;BME280;16801;53.562;10.038;2022-08-19T15:39:35;101234.94;;;24.86;61.13
29941;BME280;16801;53.562;10.038;2022-08-19T15:42:56;101231.66;;;25.02;60.67
29941;BME280;16801;53.562;10.038;2022-08-19T15:46:20;101230.72;;;25.15;60.08
29941;BME280;16801;53.562;10.038;2022-08-19T15:49:42;101223.19;;;25.28;59.72
29941;BME280;16801;53.562;10.038;2022-08-19T15:53:06;101225.03;;;25.41;58.93
29941;BME280;16801;53.562;10.038;2022-08-19T15:56:27;101231.31;;;25.55;59.18
29941;BME280;16801;53.562;10.038;2022-08-19T16:00:12;101228.09;;;25.26;58.14
29941;BME280;16801;53.562;10.038;2022-08-19T16:03:53;101228.50;;;24.99;59.29
29941;BME280;16801;53.562;10.038;2022-08-19T16:07:31;101224.59;;;25.13;59.24
29941;BME280;16801;53.562;10.038;2022-08-19T16:10:53;101219.41;;;24.92;59.42
29941;BME280;16801;53.562;10.038;2022-08-19T16:14:16;101219.81;;;24.95;59.40
29941;BME280;16801;53.562;10.038;2022-08-19T16:17:37;101227.50;;;25.18;59.00
29941;BME280;16801;53.562;10.038;2022-08-19T16:20:59;101215.47;;;25.37;57.78
29941;BME280;16801;53.562;10.038;2022-08-19T16:24:23;101218.72;;;25.83;56.69
29941;BME280;16801;53.562;10.038;2022-08-19T16:27:45;101213.41;;;25.64;57.57
29941;BME280;16801;53.562;10.038;2022-08-19T16:31:08;101214.53;;;25.25;58.42
29941;BME280;16801;53.562;10.038;2022-08-19T16:34:29;101208.75;;;25.26;58.17
29941;BME280;16801;53.562;10.038;2022-08-19T16:37:51;101208.53;;;25.59;57.60
29941;BME280;16801;53.562;10.038;2022-08-19T16:41:12;101222.22;;;25.16;57.84
29941;BME280;16801;53.562;10.038;2022-08-19T16:44:34;101205.63;;;25.23;57.72
29941;BME280;16801;53.562;10.038;2022-08-19T16:47:55;101220.09;;;25.50;57.40
29941;BME280;16801;53.562;10.038;2022-08-19T16:51:17;101216.91;;;25.71;56.80
29941;BME280;16801;53.562;10.038;2022-08-19T16:54:39;101225.25;;;25.64;56.88
29941;BME280;16801;53.562;10.038;2022-08-19T16:58:00;101215.25;;;25.70;57.31
29941;BME280;16801;53.562;10.038;2022-08-19T17:01:23;101209.38;;;25.60;56.66
29941;BME280;16801;53.562;10.038;2022-08-19T17:04:44;101217.78;;;25.71;56.63
29941;BME280;16801;53.562;10.038;2022-08-19T17:08:08;101210.69;;;25.57;56.88
29941;BME280;16801;53.562;10.038;2022-08-19T17:11:31;101213.56;;;25.37;58.10
29941;BME280;16801;53.562;10.038;2022-08-19T17:14:52;101205.81;;;25.28;57.70
29941;BME280;16801;53.562;10.038;2022-08-19T17:18:14;101219.72;;;24.77;59.02
29941;BME280;16801;53.562;10.038;2022-08-19T17:21:37;101224.19;;;24.78;59.67
29941;BME280;16801;53.562;10.038;2022-08-19T17:24:59;101221.69;;;24.57;60.25
29941;BME280;16801;53.562;10.038;2022-08-19T17:28:24;101224.31;;;24.39;61.04